sensor_id;sensor_type;location;lat;lon;timestamp;P1;durP1;ratioP1;P2;durP2;ratioP2
20144;SDS011;10233;50.814;6.590;2023-04-01T00:00:34;1.90;;;0.30;;
20144;SDS011;10233;50.814;6.590;2023-04-01T00:01:34;0.45;;;0.25;;
20144;SDS011;10233;50.814;6.590;2023-04-01T00:02:35;0.83;;;0.40;;
20144;SDS011;10233;50.814;6.590;2023-04-01T00:03:36;0.15;;;0.15;;
20144;SDS011;10233;50.814;6.590;2023-04-01T00:04:37;1.58;;;0.20;;
20144;SDS011;10233;50.814;6.590;2023-04-01T00:05:37;2.00;;;0.35;;
20144;SDS011;10233;50.814;6.590;2023-04-01T00:06:38;0.73;;;0.30;;
20144;SDS011;10233;50.814;6.590;2023-04-01T00:07:39;0.68;;;0.20;;
20144;SDS011;10233;50.814;6.590;2023-04-01T00:08:40;0.30;;;0.10;;
20144;SDS011;10233;50.814;6.590;2023-04-01T00:09:41;0.93;;;0.20;;
20144;SDS011;10233;50.814;6.590;2023-04-01T00:10:41;0.57;;;0.40;;
20144;SDS011;10233;50.814;6.590;2023-04-01T00:11:42;0.32;;;0.20;;
20144;SDS011;10233;50.814;6.590;2023-04-01T00:12:43;1.20;;;0.30;;
20144;SDS011;10233;50.814;6.590;2023-04-01T00:13:44;0.63;;;0.28;;
20144;SDS011;10233;50.814;6.590;2023-04-01T00:14:44;0.90;;;0.13;;
20144;SDS011;10233;50.814;6.590;2023-04-01T00:15:48;2.13;;;0.20;;
20144;SDS011;10233;50.814;6.590;2023-04-01T00:16:49;2.03;;;0.40;;
20144;SDS011;10233;50.814;6.590;2023-04-01T00:17:50;1.20;;;0.30;;
20144;SDS011;10233;50.814;6.590;2023-04-01T00:18:50;0.40;;;0.20;;
20144;SDS011;10233;50.814;6.590;2023-04-01T00:19:51;1.63;;;0.20;;
20144;SDS011;10233;50.814;6.590;2023-04-01T00:20:52;0.85;;;0.20;;
20144;SDS011;10233;50.814;6.590;2023-04-01T00:21:53;0.47;;;0.28;;
20144;SDS011;10233;50.814;6.590;2023-04-01T00:22:53;0.40;;;0.10;;
20144;SDS011;10233;50.814;6.590;2023-04-01T00:23:54;0.35;;;0.20;;
20144;SDS011;10233;50.814;6.590;2023-04-01T00:24:55;1.20;;;0.10;;
20144;SDS011;10233;50.814;6.590;2023-04-01T00:25:55;0.10;;;0.10;;
20144;SDS011;10233;50.814;6.590;2023-04-01T00:26:56;0.52;;;0.20;;
20144;SDS011;10233;50.814;6.590;2023-04-01T00:27:56;0.40;;;0.10;;
20144;SDS011;10233;50.814;6.590;2023-04-01T00:28:58;0.30;;;0.25;;
20144;SDS011;10233;50.814;6.590;2023-04-01T00:29:58;0.25;;;0.20;;
20144;SDS011;10233;50.814;6.590;2023-04-01T00:31:03;1.17;;;0.20;;
20144;SDS011;10233;50.814;6.590;2023-04-01T00:32:04;1.17;;;0.30;;
20144;SDS011;10233;50.814;6.590;2023-04-01T00:33:05;1.05;;;0.30;;
20144;SDS011;10233;50.814;6.590;2023-04-01T00:34:06;1.23;;;0.30;;
20144;SDS011;10233;50.814;6.590;2023-04-01T00:35:07;0.53;;;0.10;;
20144;SDS011;10233;50.814;6.590;2023-04-01T00:36:11;0.20;;;0.10;;
20144;SDS011;10233;50.814;6.590;2023-04-01T00:37:13;0.80;;;0.20;;
20144;SDS011;10233;50.814;6.590;2023-04-01T00:38:14;1.40;;;0.20;;
20144;SDS011;10233;50.814;6.590;2023-04-01T00:39:14;0.40;;;0.20;;
20144;SDS011;10233;50.814;6.590;2023-04-01T00:40:32;0.95;;;0.20;;
20144;SDS011;10233;50.814;6.590;2023-04-01T00:41:37;1.23;;;0.28;;
20144;SDS011;10233;50.814;6.590;2023-04-01T00:42:38;0.40;;;0.10;;
20144;SDS011;10233;50.814;6.590;2023-04-01T00:43:39;0.93;;;0.20;;
20144;SDS011;10233;50.814;6.590;2023-04-01T00:44:40;0.35;;;0.13;;
20144;SDS011;10233;50.814;6.590;2023-04-01T00:45:42;0.70;;;0.10;;
20144;SDS011;10233;50.814;6.590;2023-04-01T00:46:43;1.30;;;0.30;;
20144;SDS011;10233;50.814;6.590;2023-04-01T00:47:44;0.80;;;0.20;;
20144;SDS011;10233;50.814;6.590;2023-04-01T00:48:47;0.30;;;0.10;;
20144;SDS011;10233;50.814;6.590;2023-04-01T00:49:51;0.90;;;0.20;;
20144;SDS011;10233;50.814;6.590;2023-04-01T00:50:58;0.08;;;0.05;;
20144;SDS011;10233;50.814;6.590;2023-04-01T00:52:02;0.80;;;0.10;;
20144;SDS011;10233;50.814;6.590;2023-04-01T00:53:05;0.70;;;0.20;;
20144;SDS011;10233;50.814;6.590;2023-04-01T00:54:08;0.43;;;0.13;;
20144;SDS011;10233;50.814;6.590;2023-04-01T00:55:11;1.02;;;0.10;;
20144;SDS011;10233;50.814;6.590;2023-04-01T00:56:16;0.60;;;0.10;;
20144;SDS011;10233;50.814;6.590;2023-04-01T00:57:22;0.90;;;0.10;;
20144;SDS011;10233;50.814;6.590;2023-04-01T00:58:29;0.75;;;0.20;;
20144;SDS011;10233;50.814;6.590;2023-04-01T00:59:37;0.37;;;0.10;;
20144;SDS011;10233;50.814;6.590;2023-04-01T01:00:41;0.45;;;0.10;;
20144;SDS011;10233;50.814;6.590;2023-04-01T01:01:42;0.77;;;0.20;;
20144;SDS011;10233;50.814;6.590;2023-04-01T01:02:43;1.40;;;0.20;;
20144;SDS011;10233;50.814;6.590;2023-04-01T01:03:46;0.90;;;0.10;;
20144;SDS011;10233;50.814;6.590;2023-04-01T01:04:46;0.38;;;0.15;;
20144;SDS011;10233;50.814;6.590;2023-04-01T01:07:19;0.30;;;0.20;;
20144;SDS011;10233;50.814;6.590;2023-04-01T01:10:01;0.28;;;0.13;;
20144;SDS011;10233;50.814;6.590;2023-04-01T01:11:12;0.45;;;0.10;;
20144;SDS011;10233;50.814;6.590;2023-04-01T01:12:20;0.52;;;0.20;;
20144;SDS011;10233;50.814;6.590;2023-04-01T01:13:31;0.90;;;0.20;;
20144;SDS011;10233;50.814;6.590;2023-04-01T01:16:21;0.52;;;0.25;;
20144;SDS011;10233;50.814;6.590;2023-04-01T01:17:43;1.00;;;0.10;;
20144;SDS011;10233;50.814;6.590;2023-04-01T01:19:21;0.40;;;0.20;;
20144;SDS011;10233;50.814;6.590;2023-04-01T01:22:03;0.52;;;0.20;;
20144;SDS011;10233;50.814;6.590;2023-04-01T01:24:51;0.70;;;0.10;;
20144;SDS011;10233;50.814;6.590;2023-04-01T01:26:07;1.40;;;0.30;;
20144;SDS011;10233;50.814;6.590;2023-04-01T01:27:20;1.70;;;0.20;;
20144;SDS011;10233;50.814;6.590;2023-04-01T01:31:02;0.88;;;0.30;;
20144;SDS011;10233;50.814;6.590;2023-04-01T01:33:46;0.32;;;0.10;;
20144;SDS011;10233;50.814;6.590;2023-04-01T01:36:28;1.88;;;0.40;;
20144;SDS011;10233;50.814;6.590;2023-04-01T01:37:35;0.70;;;0.10;;
20144;SDS011;10233;50.814;6.590;2023-04-01T01:38:37;0.45;;;0.20;;
20144;SDS011;10233;50.814;6.590;2023-04-01T01:39:38;0.40;;;0.20;;
20144;SDS011;10233;50.814;6.590;2023-04-01T01:40:42;0.40;;;0.20;;
20144;SDS011;10233;50.814;6.590;2023-04-01T01:41:45;0.20;;;0.20;;
20144;SDS011;10233;50.814;6.590;2023-04-01T01:42:52;0.20;;;0.10;;
20144;SDS011;10233;50.814;6.590;2023-04-01T01:43:56;0.47;;;0.13;;
20144;SDS011;10233;50.814;6.590;2023-04-01T01:45:00;0.20;;;0.10;;
20144;SDS011;10233;50.814;6.590;2023-04-01T01:46:05;0.40;;;0.10;;
20144;SDS011;10233;50.814;6.590;2023-04-01T01:47:13;0.40;;;0.15;;
20144;SDS011;10233;50.814;6.590;2023-04-01T01:48:16;0.25;;;0.17;;
20144;SDS011;10233;50.814;6.590;2023-04-01T01:49:17;1.10;;;0.30;;
20144;SDS011;10233;50.814;6.590;2023-04-01T01:50:23;0.47;;;0.10;;
20144;SDS011;10233;50.814;6.590;2023-04-01T01:51:27;1.50;;;0.20;;
20144;SDS011;10233;50.814;6.590;2023-04-01T01:52:28;0.90;;;0.30;;
20144;SDS011;10233;50.814;6.590;2023-04-01T01:53:30;0.30;;;0.15;;
20144;SDS011;10233;50.814;6.590;2023-04-01T01:54:30;0.95;;;0.20;;
20144;SDS011;10233;50.814;6.590;2023-04-01T01:55:32;0.70;;;0.10;;
20144;SDS011;10233;50.814;6.590;2023-04-01T01:56:35;0.82;;;0.13;;
20144;SDS011;10233;50.814;6.590;2023-04-01T01:57:37;0.28;;;0.10;;
20144;SDS011;10233;50.814;6.590;2023-04-01T01:58:54;0.20;;;0.20;;
20144;SDS011;10233;50.814;6.590;2023-04-01T02:00:02;0.70;;;0.30;;
20144;SDS011;10233;50.814;6.590;2023-04-01T02:01:13;0.88;;;0.22;;
20144;SDS011;10233;50.814;6.590;2023-04-01T02:02:18;0.50;;;0.10;;
20144;SDS011;10233;50.814;6.590;2023-04-01T02:03:19;0.65;;;0.22;;
20144;SDS011;10233;50.814;6.590;2023-04-01T02:04:23;0.45;;;0.30;;
20144;SDS011;10233;50.814;6.590;2023-04-01T02:05:25;2.50;;;0.30;;
20144;SDS011;10233;50.814;6.590;2023-04-01T02:06:37;0.70;;;0.20;;
20144;SDS011;10233;50.814;6.590;2023-04-01T02:07:42;0.20;;;0.20;;
20144;SDS011;10233;50.814;6.590;2023-04-01T02:08:45;0.68;;;0.30;;
20144;SDS011;10233;50.814;6.590;2023-04-01T02:09:51;0.47;;;0.20;;
20144;SDS011;10233;50.814;6.590;2023-04-01T02:10:56;0.30;;;0.20;;
20144;SDS011;10233;50.814;6.590;2023-04-01T02:12:04;2.10;;;0.20;;
20144;SDS011;10233;50.814;6.590;2023-04-01T02:13:13;1.27;;;0.17;;
20144;SDS011;10233;50.814;6.590;2023-04-01T02:15:57;0.70;;;0.20;;
20144;SDS011;10233;50.814;6.590;2023-04-01T02:18:11;1.00;;;0.20;;
20144;SDS011;10233;50.814;6.590;2023-04-01T02:19:17;0.50;;;0.30;;
20144;SDS011;10233;50.814;6.590;2023-04-01T02:20:23;0.55;;;0.20;;
20144;SDS011;10233;50.814;6.590;2023-04-01T02:21:29;0.57;;;0.20;;
20144;SDS011;10233;50.814;6.590;2023-04-01T02:22:37;0.22;;;0.10;;
20144;SDS011;10233;50.814;6.590;2023-04-01T02:23:42;1.10;;;0.30;;
20144;SDS011;10233;50.814;6.590;2023-04-01T02:24:46;0.35;;;0.20;;
20144;SDS011;10233;50.814;6.590;2023-04-01T02:25:49;0.70;;;0.10;;
20144;SDS011;10233;50.814;6.590;2023-04-01T02:26:51;0.43;;;0.22;;
20144;SDS011;10233;50.814;6.590;2023-04-01T02:27:52;0.10;;;0.10;;
20144;SDS011;10233;50.814;6.590;2023-04-01T02:28:56;0.50;;;0.10;;
20144;SDS011;10233;50.814;6.590;2023-04-01T02:30:00;0.50;;;0.10;;
20144;SDS011;10233;50.814;6.590;2023-04-01T02:31:00;0.20;;;0.13;;
20144;SDS011;10233;50.814;6.590;2023-04-01T02:32:02;0.47;;;0.10;;
20144;SDS011;10233;50.814;6.590;2023-04-01T02:33:04;0.32;;;0.10;;
20144;SDS011;10233;50.814;6.590;2023-04-01T02:34:06;0.20;;;0.10;;
20144;SDS011;10233;50.814;6.590;2023-04-01T02:35:07;0.30;;;0.10;;
20144;SDS011;10233;50.814;6.590;2023-04-01T02:36:12;0.10;;;0.10;;
20144;SDS011;10233;50.814;6.590;2023-04-01T02:37:13;0.40;;;0.03;;
20144;SDS011;10233;50.814;6.590;2023-04-01T02:38:15;0.32;;;0.00;;
20144;SDS011;10233;50.814;6.590;2023-04-01T02:39:16;0.28;;;0.10;;
20144;SDS011;10233;50.814;6.590;2023-04-01T02:40:17;0.13;;;0.00;;
20144;SDS011;10233;50.814;6.590;2023-04-01T02:41:18;0.60;;;0.10;;
20144;SDS011;10233;50.814;6.590;2023-04-01T02:42:19;1.13;;;0.20;;
20144;SDS011;10233;50.814;6.590;2023-04-01T02:43:20;0.15;;;0.10;;
20144;SDS011;10233;50.814;6.590;2023-04-01T02:44:21;0.60;;;0.00;;
20144;SDS011;10233;50.814;6.590;2023-04-01T02:45:21;0.40;;;0.30;;
20144;SDS011;10233;50.814;6.590;2023-04-01T02:46:22;0.00;;;0.00;;
20144;SDS011;10233;50.814;6.590;2023-04-01T02:47:23;0.70;;;0.20;;
20144;SDS011;10233;50.814;6.590;2023-04-01T02:48:23;0.70;;;0.10;;
20144;SDS011;10233;50.814;6.590;2023-04-01T02:49:24;0.35;;;0.20;;
20144;SDS011;10233;50.814;6.590;2023-04-01T02:50:25;0.40;;;0.20;;
20144;SDS011;10233;50.814;6.590;2023-04-01T02:51:25;0.03;;;0.03;;
20144;SDS011;10233;50.814;6.590;2023-04-01T02:52:27;0.20;;;0.10;;
20144;SDS011;10233;50.814;6.590;2023-04-01T02:53:30;1.27;;;0.08;;
20144;SDS011;10233;50.814;6.590;2023-04-01T02:54:31;0.40;;;0.10;;
20144;SDS011;10233;50.814;6.590;2023-04-01T02:55:32;1.27;;;0.17;;
20144;SDS011;10233;50.814;6.590;2023-04-01T02:56:33;0.15;;;0.10;;
20144;SDS011;10233;50.814;6.590;2023-04-01T02:57:33;0.50;;;0.20;;
20144;SDS011;10233;50.814;6.590;2023-04-01T02:58:34;0.32;;;0.10;;
20144;SDS011;10233;50.814;6.590;2023-04-01T02:59:35;1.13;;;0.00;;
20144;SDS011;10233;50.814;6.590;2023-04-01T03:00:36;0.27;;;0.07;;
20144;SDS011;10233;50.814;6.590;2023-04-01T03:01:37;0.10;;;0.10;;
20144;SDS011;10233;50.814;6.590;2023-04-01T03:02:38;0.50;;;0.10;;
20144;SDS011;10233;50.814;6.590;2023-04-01T03:03:39;0.10;;;0.00;;
20144;SDS011;10233;50.814;6.590;2023-04-01T03:04:39;0.70;;;0.10;;
20144;SDS011;10233;50.814;6.590;2023-04-01T03:05:40;0.90;;;0.10;;
20144;SDS011;10233;50.814;6.590;2023-04-01T03:06:41;0.00;;;0.00;;
20144;SDS011;10233;50.814;6.590;2023-04-01T03:07:41;0.30;;;0.10;;
20144;SDS011;10233;50.814;6.590;2023-04-01T03:08:42;0.60;;;0.20;;
20144;SDS011;10233;50.814;6.590;2023-04-01T03:09:44;1.00;;;0.30;;
20144;SDS011;10233;50.814;6.590;2023-04-01T03:10:45;0.50;;;0.10;;
20144;SDS011;10233;50.814;6.590;2023-04-01T03:11:45;0.40;;;0.10;;
20144;SDS011;10233;50.814;6.590;2023-04-01T03:12:46;0.20;;;0.10;;
20144;SDS011;10233;50.814;6.590;2023-04-01T03:13:47;0.20;;;0.10;;
20144;SDS011;10233;50.814;6.590;2023-04-01T03:14:47;1.90;;;0.10;;
20144;SDS011;10233;50.814;6.590;2023-04-01T03:15:48;0.30;;;0.10;;
20144;SDS011;10233;50.814;6.590;2023-04-01T03:16:48;0.20;;;0.13;;
20144;SDS011;10233;50.814;6.590;2023-04-01T03:17:49;0.90;;;0.10;;
20144;SDS011;10233;50.814;6.590;2023-04-01T03:18:51;1.25;;;0.20;;
20144;SDS011;10233;50.814;6.590;2023-04-01T03:19:52;0.30;;;0.20;;
20144;SDS011;10233;50.814;6.590;2023-04-01T03:20:53;1.90;;;0.10;;
20144;SDS011;10233;50.814;6.590;2023-04-01T03:21:54;1.00;;;0.28;;
20144;SDS011;10233;50.814;6.590;2023-04-01T03:22:54;0.20;;;0.10;;
20144;SDS011;10233;50.814;6.590;2023-04-01T03:23:55;0.43;;;0.20;;
20144;SDS011;10233;50.814;6.590;2023-04-01T03:24:56;1.27;;;0.20;;
20144;SDS011;10233;50.814;6.590;2023-04-01T03:25:57;0.90;;;0.10;;
20144;SDS011;10233;50.814;6.590;2023-04-01T03:26:58;1.10;;;0.20;;
20144;SDS011;10233;50.814;6.590;2023-04-01T03:27:59;0.20;;;0.10;;
20144;SDS011;10233;50.814;6.590;2023-04-01T03:29:00;0.77;;;0.30;;
20144;SDS011;10233;50.814;6.590;2023-04-01T03:30:01;0.43;;;0.10;;
20144;SDS011;10233;50.814;6.590;2023-04-01T03:31:04;0.10;;;0.10;;
20144;SDS011;10233;50.814;6.590;2023-04-01T03:32:14;0.20;;;0.10;;
20144;SDS011;10233;50.814;6.590;2023-04-01T03:33:15;1.00;;;0.20;;
20144;SDS011;10233;50.814;6.590;2023-04-01T03:34:15;1.17;;;0.10;;
20144;SDS011;10233;50.814;6.590;2023-04-01T03:35:16;0.20;;;0.10;;
20144;SDS011;10233;50.814;6.590;2023-04-01T03:36:17;0.30;;;0.00;;
20144;SDS011;10233;50.814;6.590;2023-04-01T03:37:18;0.10;;;0.10;;
20144;SDS011;10233;50.814;6.590;2023-04-01T03:38:18;1.08;;;0.22;;
20144;SDS011;10233;50.814;6.590;2023-04-01T03:39:19;0.90;;;0.20;;
20144;SDS011;10233;50.814;6.590;2023-04-01T03:40:20;0.30;;;0.20;;
20144;SDS011;10233;50.814;6.590;2023-04-01T03:41:21;0.43;;;0.00;;
20144;SDS011;10233;50.814;6.590;2023-04-01T03:42:22;0.20;;;0.20;;
20144;SDS011;10233;50.814;6.590;2023-04-01T03:43:22;0.30;;;0.10;;
20144;SDS011;10233;50.814;6.590;2023-04-01T03:44:23;0.50;;;0.10;;
20144;SDS011;10233;50.814;6.590;2023-04-01T03:45:27;0.70;;;0.10;;
20144;SDS011;10233;50.814;6.590;2023-04-01T03:46:27;0.10;;;0.10;;
20144;SDS011;10233;50.814;6.590;2023-04-01T03:47:28;0.70;;;0.00;;
20144;SDS011;10233;50.814;6.590;2023-04-01T03:48:29;1.70;;;0.10;;
20144;SDS011;10233;50.814;6.590;2023-04-01T03:49:29;0.00;;;0.00;;
20144;SDS011;10233;50.814;6.590;2023-04-01T03:50:32;0.20;;;0.10;;
20144;SDS011;10233;50.814;6.590;2023-04-01T03:51:35;0.30;;;0.10;;
20144;SDS011;10233;50.814;6.590;2023-04-01T03:52:35;0.40;;;0.10;;
20144;SDS011;10233;50.814;6.590;2023-04-01T03:53:36;0.50;;;0.10;;
20144;SDS011;10233;50.814;6.590;2023-04-01T03:54:39;0.82;;;0.20;;
20144;SDS011;10233;50.814;6.590;2023-04-01T03:55:40;0.60;;;0.10;;
20144;SDS011;10233;50.814;6.590;2023-04-01T03:56:41;1.20;;;0.20;;
20144;SDS011;10233;50.814;6.590;2023-04-01T03:57:41;0.30;;;0.00;;
20144;SDS011;10233;50.814;6.590;2023-04-01T03:58:51;0.08;;;0.08;;
20144;SDS011;10233;50.814;6.590;2023-04-01T03:59:52;1.25;;;0.10;;
20144;SDS011;10233;50.814;6.590;2023-04-01T04:00:53;0.20;;;0.15;;
20144;SDS011;10233;50.814;6.590;2023-04-01T04:01:54;0.28;;;0.10;;
20144;SDS011;10233;50.814;6.590;2023-04-01T04:02:55;0.40;;;0.10;;
20144;SDS011;10233;50.814;6.590;2023-04-01T04:04:02;0.80;;;0.10;;
20144;SDS011;10233;50.814;6.590;2023-04-01T04:05:03;0.35;;;0.10;;
20144;SDS011;10233;50.814;6.590;2023-04-01T04:06:04;0.40;;;0.20;;
20144;SDS011;10233;50.814;6.590;2023-04-01T04:07:05;0.35;;;0.10;;
20144;SDS011;10233;50.814;6.590;2023-04-01T04:08:21;0.20;;;0.17;;
20144;SDS011;10233;50.814;6.590;2023-04-01T04:09:23;0.20;;;0.05;;
20144;SDS011;10233;50.814;6.590;2023-04-01T04:10:24;0.98;;;0.13;;
20144;SDS011;10233;50.814;6.590;2023-04-01T04:11:25;0.50;;;0.20;;
20144;SDS011;10233;50.814;6.590;2023-04-01T04:12:27;0.60;;;0.20;;
20144;SDS011;10233;50.814;6.590;2023-04-01T04:13:28;0.10;;;0.10;;
20144;SDS011;10233;50.814;6.590;2023-04-01T04:14:34;0.40;;;0.20;;
20144;SDS011;10233;50.814;6.590;2023-04-01T04:15:35;1.03;;;0.10;;
20144;SDS011;10233;50.814;6.590;2023-04-01T04:16:35;0.15;;;0.10;;
20144;SDS011;10233;50.814;6.590;2023-04-01T04:17:40;0.22;;;0.20;;
20144;SDS011;10233;50.814;6.590;2023-04-01T04:18:41;0.47;;;0.10;;
20144;SDS011;10233;50.814;6.590;2023-04-01T04:19:42;0.50;;;0.30;;
20144;SDS011;10233;50.814;6.590;2023-04-01T04:20:46;1.05;;;0.20;;
20144;SDS011;10233;50.814;6.590;2023-04-01T04:21:52;0.50;;;0.20;;
20144;SDS011;10233;50.814;6.590;2023-04-01T04:22:52;1.10;;;0.30;;
20144;SDS011;10233;50.814;6.590;2023-04-01T04:23:53;2.30;;;0.40;;
20144;SDS011;10233;50.814;6.590;2023-04-01T04:24:55;0.40;;;0.20;;
20144;SDS011;10233;50.814;6.590;2023-04-01T04:25:58;1.20;;;0.32;;
20144;SDS011;10233;50.814;6.590;2023-04-01T04:27:02;0.60;;;0.27;;
20144;SDS011;10233;50.814;6.590;2023-04-01T04:28:04;0.35;;;0.10;;
20144;SDS011;10233;50.814;6.590;2023-04-01T04:29:04;1.40;;;0.20;;
20144;SDS011;10233;50.814;6.590;2023-04-01T04:30:05;1.05;;;0.30;;
20144;SDS011;10233;50.814;6.590;2023-04-01T04:31:08;2.60;;;0.20;;
20144;SDS011;10233;50.814;6.590;2023-04-01T04:32:09;0.10;;;0.10;;
20144;SDS011;10233;50.814;6.590;2023-04-01T04:33:13;1.70;;;0.20;;
20144;SDS011;10233;50.814;6.590;2023-04-01T04:34:14;0.67;;;0.30;;
20144;SDS011;10233;50.814;6.590;2023-04-01T04:35:14;0.70;;;0.40;;
20144;SDS011;10233;50.814;6.590;2023-04-01T04:36:15;0.90;;;0.10;;
20144;SDS011;10233;50.814;6.590;2023-04-01T04:37:17;1.10;;;0.20;;
20144;SDS011;10233;50.814;6.590;2023-04-01T04:38:17;0.43;;;0.20;;
20144;SDS011;10233;50.814;6.590;2023-04-01T04:39:18;0.50;;;0.10;;
20144;SDS011;10233;50.814;6.590;2023-04-01T04:40:19;1.40;;;0.20;;
20144;SDS011;10233;50.814;6.590;2023-04-01T04:41:20;0.60;;;0.10;;
20144;SDS011;10233;50.814;6.590;2023-04-01T04:42:23;1.48;;;0.17;;
20144;SDS011;10233;50.814;6.590;2023-04-01T04:43:28;0.52;;;0.20;;
20144;SDS011;10233;50.814;6.590;2023-04-01T04:44:30;0.95;;;0.22;;
20144;SDS011;10233;50.814;6.590;2023-04-01T04:45:32;0.40;;;0.20;;
20144;SDS011;10233;50.814;6.590;2023-04-01T04:46:33;0.60;;;0.20;;
20144;SDS011;10233;50.814;6.590;2023-04-01T04:47:45;0.20;;;0.20;;
20144;SDS011;10233;50.814;6.590;2023-04-01T04:48:46;0.50;;;0.10;;
20144;SDS011;10233;50.814;6.590;2023-04-01T04:49:46;0.63;;;0.28;;
20144;SDS011;10233;50.814;6.590;2023-04-01T04:50:47;0.50;;;0.47;;
20144;SDS011;10233;50.814;6.590;2023-04-01T04:51:50;0.55;;;0.22;;
20144;SDS011;10233;50.814;6.590;2023-04-01T04:52:56;0.80;;;0.20;;
20144;SDS011;10233;50.814;6.590;2023-04-01T04:53:57;0.55;;;0.20;;
20144;SDS011;10233;50.814;6.590;2023-04-01T04:55:12;0.68;;;0.10;;
20144;SDS011;10233;50.814;6.590;2023-04-01T04:56:19;0.20;;;0.20;;
20144;SDS011;10233;50.814;6.590;2023-04-01T04:57:28;0.20;;;0.10;;
20144;SDS011;10233;50.814;6.590;2023-04-01T04:58:29;0.65;;;0.30;;
20144;SDS011;10233;50.814;6.590;2023-04-01T04:59:30;0.13;;;0.10;;
20144;SDS011;10233;50.814;6.590;2023-04-01T05:00:45;0.52;;;0.20;;
20144;SDS011;10233;50.814;6.590;2023-04-01T05:01:53;0.10;;;0.10;;
20144;SDS011;10233;50.814;6.590;2023-04-01T05:02:54;0.20;;;0.10;;
20144;SDS011;10233;50.814;6.590;2023-04-01T05:03:55;0.20;;;0.20;;
20144;SDS011;10233;50.814;6.590;2023-04-01T05:04:55;0.15;;;0.10;;
20144;SDS011;10233;50.814;6.590;2023-04-01T05:05:56;1.70;;;1.30;;
20144;SDS011;10233;50.814;6.590;2023-04-01T05:06:58;2.55;;;2.15;;
20144;SDS011;10233;50.814;6.590;2023-04-01T05:07:58;0.80;;;0.63;;
20144;SDS011;10233;50.814;6.590;2023-04-01T05:08:59;0.20;;;0.20;;
20144;SDS011;10233;50.814;6.590;2023-04-01T05:10:00;0.50;;;0.40;;
20144;SDS011;10233;50.814;6.590;2023-04-01T05:11:01;2.63;;;0.80;;
20144;SDS011;10233;50.814;6.590;2023-04-01T05:12:05;2.58;;;1.67;;
20144;SDS011;10233;50.814;6.590;2023-04-01T05:13:26;1.00;;;0.65;;
20144;SDS011;10233;50.814;6.590;2023-04-01T05:14:27;0.50;;;0.50;;
20144;SDS011;10233;50.814;6.590;2023-04-01T05:15:41;0.43;;;0.37;;
20144;SDS011;10233;50.814;6.590;2023-04-01T05:16:41;1.40;;;0.37;;
20144;SDS011;10233;50.814;6.590;2023-04-01T05:17:42;0.60;;;0.50;;
20144;SDS011;10233;50.814;6.590;2023-04-01T05:18:44;0.38;;;0.30;;
20144;SDS011;10233;50.814;6.590;2023-04-01T05:19:45;1.65;;;0.50;;
20144;SDS011;10233;50.814;6.590;2023-04-01T05:20:46;0.50;;;0.47;;
20144;SDS011;10233;50.814;6.590;2023-04-01T05:21:52;0.30;;;0.30;;
20144;SDS011;10233;50.814;6.590;2023-04-01T05:22:56;0.45;;;0.40;;
20144;SDS011;10233;50.814;6.590;2023-04-01T05:23:58;0.70;;;0.20;;
20144;SDS011;10233;50.814;6.590;2023-04-01T05:25:03;0.80;;;0.40;;
20144;SDS011;10233;50.814;6.590;2023-04-01T05:26:07;0.30;;;0.22;;
20144;SDS011;10233;50.814;6.590;2023-04-01T05:27:11;0.53;;;0.20;;
20144;SDS011;10233;50.814;6.590;2023-04-01T05:28:14;0.45;;;0.40;;
20144;SDS011;10233;50.814;6.590;2023-04-01T05:29:16;1.20;;;0.30;;
20144;SDS011;10233;50.814;6.590;2023-04-01T05:30:19;0.50;;;0.20;;
20144;SDS011;10233;50.814;6.590;2023-04-01T05:31:57;0.40;;;0.30;;
20144;SDS011;10233;50.814;6.590;2023-04-01T05:32:57;0.40;;;0.30;;
20144;SDS011;10233;50.814;6.590;2023-04-01T05:33:58;0.30;;;0.30;;
20144;SDS011;10233;50.814;6.590;2023-04-01T05:34:58;0.70;;;0.30;;
20144;SDS011;10233;50.814;6.590;2023-04-01T05:36:32;0.57;;;0.30;;
20144;SDS011;10233;50.814;6.590;2023-04-01T05:37:29;0.45;;;0.30;;
20144;SDS011;10233;50.814;6.590;2023-04-01T05:38:29;0.60;;;0.40;;
20144;SDS011;10233;50.814;6.590;2023-04-01T05:39:30;0.80;;;0.30;;
20144;SDS011;10233;50.814;6.590;2023-04-01T05:40:31;0.57;;;0.30;;
20144;SDS011;10233;50.814;6.590;2023-04-01T05:41:34;0.35;;;0.35;;
20144;SDS011;10233;50.814;6.590;2023-04-01T05:42:36;0.50;;;0.40;;
20144;SDS011;10233;50.814;6.590;2023-04-01T05:43:36;0.75;;;0.47;;
20144;SDS011;10233;50.814;6.590;2023-04-01T05:44:57;1.10;;;0.60;;
20144;SDS011;10233;50.814;6.590;2023-04-01T05:46:16;0.88;;;0.50;;
20144;SDS011;10233;50.814;6.590;2023-04-01T05:47:26;0.77;;;0.77;;
20144;SDS011;10233;50.814;6.590;2023-04-01T05:48:26;0.43;;;0.40;;
20144;SDS011;10233;50.814;6.590;2023-04-01T05:49:27;1.10;;;0.55;;
20144;SDS011;10233;50.814;6.590;2023-04-01T05:50:28;0.70;;;0.70;;
20144;SDS011;10233;50.814;6.590;2023-04-01T05:51:29;0.80;;;0.60;;
20144;SDS011;10233;50.814;6.590;2023-04-01T05:52:29;1.40;;;0.70;;
20144;SDS011;10233;50.814;6.590;2023-04-01T05:53:31;0.77;;;0.60;;
20144;SDS011;10233;50.814;6.590;2023-04-01T05:54:31;1.38;;;0.70;;
20144;SDS011;10233;50.814;6.590;2023-04-01T05:55:34;0.95;;;0.70;;
20144;SDS011;10233;50.814;6.590;2023-04-01T05:56:36;1.20;;;0.40;;
20144;SDS011;10233;50.814;6.590;2023-04-01T05:57:37;1.80;;;0.70;;
20144;SDS011;10233;50.814;6.590;2023-04-01T05:58:38;0.70;;;0.40;;
20144;SDS011;10233;50.814;6.590;2023-04-01T05:59:42;0.43;;;0.40;;
20144;SDS011;10233;50.814;6.590;2023-04-01T06:00:43;0.60;;;0.43;;
20144;SDS011;10233;50.814;6.590;2023-04-01T06:01:45;1.50;;;0.40;;
20144;SDS011;10233;50.814;6.590;2023-04-01T06:02:46;0.77;;;0.47;;
20144;SDS011;10233;50.814;6.590;2023-04-01T06:03:47;1.70;;;0.30;;
20144;SDS011;10233;50.814;6.590;2023-04-01T06:04:48;0.70;;;0.50;;
20144;SDS011;10233;50.814;6.590;2023-04-01T06:05:48;0.73;;;0.63;;
20144;SDS011;10233;50.814;6.590;2023-04-01T06:06:49;1.80;;;0.90;;
20144;SDS011;10233;50.814;6.590;2023-04-01T06:07:53;4.47;;;0.70;;
20144;SDS011;10233;50.814;6.590;2023-04-01T06:09:05;0.80;;;0.50;;
20144;SDS011;10233;50.814;6.590;2023-04-01T06:10:16;1.58;;;0.80;;
20144;SDS011;10233;50.814;6.590;2023-04-01T06:11:25;2.65;;;0.75;;
20144;SDS011;10233;50.814;6.590;2023-04-01T06:12:44;1.00;;;0.70;;
20144;SDS011;10233;50.814;6.590;2023-04-01T06:17:35;1.80;;;0.98;;
20144;SDS011;10233;50.814;6.590;2023-04-01T06:20:36;1.90;;;1.00;;
20144;SDS011;10233;50.814;6.590;2023-04-01T06:21:46;1.02;;;0.93;;
20144;SDS011;10233;50.814;6.590;2023-04-01T06:23:37;1.38;;;0.95;;
20144;SDS011;10233;50.814;6.590;2023-04-01T06:24:50;2.08;;;0.90;;
20144;SDS011;10233;50.814;6.590;2023-04-01T06:26:11;1.50;;;0.90;;
20144;SDS011;10233;50.814;6.590;2023-04-01T06:27:32;1.40;;;1.00;;
20144;SDS011;10233;50.814;6.590;2023-04-01T06:28:49;2.63;;;0.80;;
20144;SDS011;10233;50.814;6.590;2023-04-01T06:30:02;1.13;;;0.73;;
20144;SDS011;10233;50.814;6.590;2023-04-01T06:37:11;1.13;;;0.70;;
20144;SDS011;10233;50.814;6.590;2023-04-01T06:38:39;2.45;;;0.95;;
20144;SDS011;10233;50.814;6.590;2023-04-01T06:39:56;0.70;;;0.57;;
20144;SDS011;10233;50.814;6.590;2023-04-01T06:42:19;1.58;;;0.90;;
20144;SDS011;10233;50.814;6.590;2023-04-01T06:54:34;1.27;;;0.80;;
20144;SDS011;10233;50.814;6.590;2023-04-01T06:55:42;1.58;;;0.60;;
20144;SDS011;10233;50.814;6.590;2023-04-01T06:57:16;1.13;;;0.80;;
20144;SDS011;10233;50.814;6.590;2023-04-01T06:58:35;1.15;;;0.80;;
20144;SDS011;10233;50.814;6.590;2023-04-01T06:59:52;1.00;;;0.40;;
20144;SDS011;10233;50.814;6.590;2023-04-01T07:00:58;1.65;;;0.50;;
20144;SDS011;10233;50.814;6.590;2023-04-01T07:02:14;0.75;;;0.50;;
20144;SDS011;10233;50.814;6.590;2023-04-01T07:03:26;1.25;;;0.60;;
20144;SDS011;10233;50.814;6.590;2023-04-01T07:04:39;1.33;;;0.52;;
20144;SDS011;10233;50.814;6.590;2023-04-01T07:05:44;0.63;;;0.45;;
20144;SDS011;10233;50.814;6.590;2023-04-01T07:06:47;0.80;;;0.60;;